createdAt,value
2019-06-20T00:01:53.837Z,99.99
2019-06-20T00:13:00.395Z,99.99
2019-06-20T00:23:58.208Z,99.99
2019-06-20T00:34:59.920Z,99.99
2019-06-20T00:46:00.590Z,99.99
2019-06-20T00:57:02.566Z,99.99
2019-06-20T01:08:05.139Z,99.99
2019-06-20T01:19:04.481Z,99.99
2019-06-20T01:30:05.940Z,99.99
2019-06-20T01:41:08.694Z,99.99
2019-06-20T01:52:09.263Z,99.99
2019-06-20T02:03:11.609Z,99.99
2019-06-20T02:14:11.778Z,99.99
2019-06-20T02:25:10.962Z,99.99
2019-06-20T02:36:12.712Z,99.99
2019-06-20T02:47:08.085Z,99.99
2019-06-20T02:58:10.024Z,99.99
2019-06-20T03:09:12.044Z,99.99
2019-06-20T03:20:12.819Z,99.99
2019-06-20T03:31:14.736Z,99.99
2019-06-20T03:42:10.844Z,99.99
2019-06-20T03:53:07.354Z,99.99
2019-06-20T04:04:09.985Z,99.99
2019-06-20T04:15:19.002Z,99.99
2019-06-20T04:26:13.106Z,99.99
2019-06-20T04:37:14.365Z,99.99
2019-06-20T04:48:16.186Z,99.99
2019-06-20T04:59:19.725Z,99.99
2019-06-20T05:10:22.197Z,99.99
2019-06-20T05:21:23.696Z,99.99
2019-06-20T05:32:26.303Z,99.99
2019-06-20T05:43:22.067Z,99.99
2019-06-20T05:54:23.143Z,99.99
2019-06-20T06:05:26.994Z,99.99
2019-06-20T06:16:28.619Z,99.99
2019-06-20T06:27:28.413Z,99.99
2019-06-20T06:38:27.977Z,99.99
2019-06-20T06:49:29.639Z,99.99
2019-06-20T07:00:33.042Z,99.99
2019-06-20T07:11:36.640Z,99.99
2019-06-20T07:22:37.846Z,99.99
2019-06-20T07:33:41.082Z,99.99
2019-06-20T07:44:37.700Z,99.99
2019-06-20T07:55:38.934Z,99.99
2019-06-20T08:06:41.937Z,99.99
2019-06-20T08:17:42.847Z,99.99
2019-06-20T08:28:44.749Z,99.99
2019-06-20T08:39:47.074Z,97.52
2019-06-20T08:50:47.624Z,97.57
2019-06-20T09:01:47.795Z,96.94
2019-06-20T09:12:48.750Z,94.92
2019-06-20T09:23:49.526Z,93.24
2019-06-20T09:34:52.987Z,93.01
2019-06-20T09:45:49.745Z,93.99
2019-06-20T09:56:55.026Z,92.67
2019-06-20T10:07:58.497Z,90.41
2019-06-20T10:18:58.717Z,87.42
2019-06-20T10:30:13.487Z,90.87
2019-06-20T10:41:07.261Z,85.03
2019-06-20T10:52:06.090Z,85.93
2019-06-20T11:03:10.040Z,85.57
2019-06-20T11:14:10.503Z,89.56
2019-06-20T11:25:09.337Z,85.19
2019-06-20T11:36:11.693Z,88.21
2019-06-20T11:47:13.848Z,89.54
2019-06-20T11:58:13.537Z,86.72
2019-06-20T12:09:13.902Z,93.17
2019-06-20T12:20:12.522Z,94.35
2019-06-20T12:31:18.951Z,93.04
2019-06-20T12:42:18.589Z,86.32
2019-06-20T12:53:18.943Z,86.60
2019-06-20T13:04:21.137Z,85.56
2019-06-20T13:15:24.135Z,75.64
2019-06-20T13:26:22.931Z,79.79
2019-06-20T13:37:21.788Z,95.01
2019-06-20T13:48:19.465Z,95.04
2019-06-20T13:59:14.056Z,95.83
2019-06-20T14:10:15.985Z,92.89
2019-06-20T14:21:17.256Z,91.53
2019-06-20T14:32:22.378Z,95.53
2019-06-20T14:43:13.907Z,99.99
2019-06-20T14:54:19.725Z,95.53
2019-06-20T15:05:21.699Z,99.84
2019-06-20T15:16:18.880Z,99.99
2019-06-20T15:27:19.635Z,99.99
2019-06-20T15:38:20.472Z,99.99
2019-06-20T15:49:20.079Z,99.99
2019-06-20T16:00:20.995Z,99.99
2019-06-20T16:11:21.348Z,99.99
2019-06-20T16:22:20.404Z,99.99
2019-06-20T16:33:25.521Z,99.99
2019-06-20T16:44:26.005Z,99.99
2019-06-20T16:55:25.937Z,99.99
2019-06-20T17:06:26.231Z,99.99
2019-06-20T17:17:24.421Z,99.99
2019-06-20T17:28:26.147Z,99.99
2019-06-20T17:39:28.309Z,99.99
2019-06-20T17:50:28.378Z,99.99
2019-06-20T18:01:30.383Z,99.99
2019-06-20T18:12:26.260Z,99.99
2019-06-20T18:23:25.658Z,99.99
2019-06-20T18:34:30.029Z,99.99
2019-06-20T18:45:29.404Z,99.99
2019-06-20T18:56:28.366Z,99.99
2019-06-20T19:07:31.124Z,99.99
2019-06-20T19:18:29.915Z,99.99
2019-06-20T19:29:31.717Z,99.99
2019-06-20T19:40:32.208Z,99.99
2019-06-20T19:51:32.397Z,99.99
2019-06-20T20:02:34.942Z,99.99
2019-06-20T20:13:36.024Z,99.99
2019-06-20T20:24:36.897Z,99.99
2019-06-20T20:35:36.509Z,99.99
2019-06-20T20:46:36.055Z,99.99
2019-06-20T20:57:32.059Z,99.99
2019-06-20T21:08:33.848Z,99.99
2019-06-20T21:19:34.383Z,99.99
2019-06-20T21:30:35.700Z,99.99
2019-06-20T21:41:37.351Z,99.99
2019-06-20T21:52:37.987Z,99.99
2019-06-20T22:03:39.973Z,99.99
2019-06-20T22:14:41.002Z,99.99
2019-06-20T22:25:39.737Z,99.99
2019-06-20T22:36:40.752Z,99.99
2019-06-20T22:47:39.964Z,99.99
2019-06-20T22:58:39.615Z,99.99
2019-06-20T23:09:41.595Z,99.99
2019-06-20T23:20:40.292Z,99.99
2019-06-20T23:31:41.581Z,99.99
2019-06-20T23:42:41.087Z,99.99
2019-06-20T23:53:40.467Z,99.99
